Charter Quote
Worldwide +44-20-3874-8091 Call
Select Language Lang
SAFETY RELIABILITY EXPERIENCE

Piacenza Airport (LIMS) - Jet Charter Services

AIRPORT INFORMATION
ICAOLIMS
IATAQPZ
LOCATIONPiacenza, Italy
FACILITY TYPEAIRPORT
Runway Length (ft) Width (ft) Surface Type Elevation (ft)
30/12 9828 148 ASP 455.70492

At Paramount Business Jets you can hire chartered private jets to and from Piacenza Airport with as little as 4 hours of notice. All flights booked via Paramount Business Jets are operated by certified direct air carriers that meet and exceed the FAA part 135 and 121 protocol or a foreign equivalent safety authority. Furthermore, Paramount Business Jets subscribes to ARGUS for their third party safety checks of operators, aircraft, and crews prior each and every flight to and from Piacenza Airport and worldwide.

  • Quote a trip using Piacenza Airport or call us 24/7 - 365 days a year at +44-20-3874-8091.
Questions? Call +44-20-3874-8091

METAR Weather Data at Piacenza Airport, LIMS, QPZ

STATIONLIMS
OBSERVEDWed Jan 23, 17:55 UTC
NOWWed Jan 23, 22:15 UTC
AGE4:20 hr ago
WINDE at 2 mph
VISIBILITY2.4 miles
CONDITIONSlight snow & mist
CLOUDSmostly cloudy
TEMP32°F (0°C)
DEWPT32°F (0°C)
HUMIDITY100%
BAROMETER994 hPa (29.35 in Hg)
METARLIMS 231755Z 10002KT 1500 -SN BR SCT009 BKN015 00/00 Q0994

Call us on +44-20-3874-8091 (24 Hours) to Hire a Private Jet or Get a Quick Quote.

Find Airports Near any Location

Processing
...